createdAt,value
2022-09-11T00:00:51.068Z,12.86
2022-09-11T00:03:24.631Z,12.86
2022-09-11T00:06:13.073Z,12.84
2022-09-11T00:08:56.069Z,12.84
2022-09-11T00:11:54.097Z,12.82
2022-09-11T00:14:41.096Z,12.82
2022-09-11T00:17:18.380Z,12.80
2022-09-11T00:20:07.090Z,12.75
2022-09-11T00:22:40.148Z,12.74
2022-09-11T00:25:27.085Z,12.71
2022-09-11T00:28:00.214Z,12.70
2022-09-11T00:30:47.108Z,12.68
2022-09-11T00:33:22.778Z,12.67
2022-09-11T00:36:13.077Z,12.68
2022-09-11T00:38:46.389Z,12.69
2022-09-11T00:41:40.081Z,12.67
2022-09-11T00:44:42.129Z,12.64
2022-09-11T00:47:36.084Z,12.61
2022-09-11T00:50:27.106Z,12.58
2022-09-11T00:53:08.175Z,12.56
2022-09-11T00:56:00.128Z,12.54
2022-09-11T00:58:45.106Z,12.50
2022-09-11T01:01:40.109Z,12.48
2022-09-11T01:04:28.117Z,12.44
2022-09-11T01:07:04.334Z,12.40
2022-09-11T01:09:51.117Z,12.38
2022-09-11T01:12:36.110Z,12.36
2022-09-11T01:15:49.123Z,12.32
2022-09-11T01:18:48.121Z,12.29
2022-09-11T01:22:09.142Z,12.25
2022-09-11T01:25:03.099Z,12.22
2022-09-11T01:27:51.194Z,12.21
2022-09-11T01:30:44.108Z,12.17
2022-09-11T01:33:30.953Z,12.16
2022-09-11T01:36:32.120Z,12.16
2022-09-11T01:39:17.107Z,12.15
2022-09-11T01:42:21.139Z,12.14
2022-09-11T01:45:10.128Z,12.11
2022-09-11T01:47:45.622Z,12.09
2022-09-11T01:50:35.129Z,12.07
2022-09-11T01:53:19.126Z,12.05
2022-09-11T01:56:20.163Z,12.01
2022-09-11T01:59:18.125Z,11.98
2022-09-11T02:02:13.200Z,11.98
2022-09-11T02:05:13.131Z,11.97
2022-09-11T02:08:13.142Z,11.96
2022-09-11T02:11:16.128Z,11.91
2022-09-11T02:13:56.894Z,11.86
2022-09-11T02:16:57.146Z,11.86
2022-09-11T02:19:41.145Z,11.87
2022-09-11T02:22:28.152Z,11.86
2022-09-11T02:25:10.134Z,11.86
2022-09-11T02:27:57.153Z,11.84
2022-09-11T02:30:30.222Z,11.81
2022-09-11T02:33:38.227Z,11.80
2022-09-11T02:36:24.160Z,11.78
2022-09-11T02:39:30.169Z,11.78
2022-09-11T02:42:25.630Z,11.76
2022-09-11T02:45:39.195Z,11.77
2022-09-11T02:48:21.262Z,11.76
2022-09-11T02:51:23.144Z,11.78
2022-09-11T02:54:05.573Z,11.81
2022-09-11T02:56:59.149Z,11.78
2022-09-11T03:00:14.174Z,11.73
2022-09-11T03:03:08.150Z,11.73
2022-09-11T03:05:55.155Z,11.74
2022-09-11T03:08:28.231Z,11.69
2022-09-11T03:11:16.145Z,11.65
2022-09-11T03:13:56.163Z,11.62
2022-09-11T03:16:50.171Z,11.63
2022-09-11T03:19:44.186Z,11.61
2022-09-11T03:22:38.173Z,11.57
2022-09-11T03:25:25.167Z,11.53
2022-09-11T03:27:58.423Z,11.55
2022-09-11T03:30:48.163Z,11.57
2022-09-11T03:33:29.195Z,11.59
2022-09-11T03:36:16.159Z,11.60
2022-09-11T03:38:56.192Z,11.60
2022-09-11T03:41:50.175Z,11.58
2022-09-11T03:44:37.182Z,11.55
2022-09-11T03:47:10.257Z,11.57
2022-09-11T03:49:57.186Z,11.60
2022-09-11T03:52:37.188Z,11.65
2022-09-11T03:55:31.205Z,11.68
2022-09-11T03:58:18.219Z,11.69
2022-09-11T04:00:59.223Z,11.69
2022-09-11T04:03:54.192Z,11.71
2022-09-11T04:06:56.203Z,11.70
2022-09-11T04:09:43.200Z,11.73
2022-09-11T04:12:16.418Z,11.74
2022-09-11T04:15:03.185Z,11.74
2022-09-11T04:17:37.295Z,11.75
2022-09-11T04:20:24.194Z,11.75
2022-09-11T04:23:04.203Z,11.76
2022-09-11T04:25:59.195Z,11.77
2022-09-11T04:28:53.202Z,11.79
2022-09-11T04:31:49.250Z,11.83
2022-09-11T04:34:43.191Z,11.83
2022-09-11T04:37:30.234Z,11.83
2022-09-11T04:40:10.282Z,11.86
2022-09-11T04:42:57.207Z,11.88
2022-09-11T04:45:40.332Z,11.90
2022-09-11T04:48:27.218Z,11.93
2022-09-11T04:51:12.322Z,11.95
2022-09-11T04:54:04.218Z,11.96
2022-09-11T04:56:46.232Z,11.97
2022-09-11T04:59:40.203Z,11.99
2022-09-11T05:02:28.238Z,12.03
2022-09-11T05:05:01.746Z,12.06
2022-09-11T05:07:48.231Z,12.06
2022-09-11T05:10:21.300Z,12.08
2022-09-11T05:13:08.229Z,12.10
2022-09-11T05:15:48.206Z,12.12
2022-09-11T05:18:35.230Z,12.13
2022-09-11T05:21:10.313Z,12.17
2022-09-11T05:23:59.228Z,12.17
2022-09-11T05:26:35.332Z,12.20
2022-09-11T05:29:23.251Z,12.22
2022-09-11T05:31:58.922Z,12.24
2022-09-11T05:34:45.225Z,12.27
2022-09-11T05:37:25.260Z,12.29
2022-09-11T05:40:19.241Z,12.33
2022-09-11T05:43:06.250Z,12.38
2022-09-11T05:45:46.265Z,12.44
2022-09-11T05:48:38.226Z,12.48
2022-09-11T05:51:23.907Z,12.51
2022-09-11T05:54:11.229Z,12.58
2022-09-11T05:56:51.245Z,12.61
2022-09-11T05:59:39.250Z,12.65
2022-09-11T06:02:19.314Z,12.68
2022-09-11T06:05:13.274Z,12.72
2022-09-11T06:08:08.233Z,12.76
2022-09-11T06:10:55.251Z,12.78
2022-09-11T06:13:28.769Z,12.81
2022-09-11T06:16:23.364Z,12.84
2022-09-11T06:18:58.372Z,12.89
2022-09-11T06:21:45.276Z,12.91
2022-09-11T06:24:18.776Z,12.93
2022-09-11T06:27:05.256Z,12.95
2022-09-11T06:29:45.302Z,12.98
2022-09-11T06:32:32.251Z,13.01
2022-09-11T06:35:12.278Z,13.02
2022-09-11T06:38:06.264Z,13.05
2022-09-11T06:40:53.279Z,13.06
2022-09-11T06:43:33.324Z,13.07
2022-09-11T06:46:32.264Z,13.08
2022-09-11T06:49:26.299Z,13.09
2022-09-11T06:52:13.260Z,13.09
2022-09-11T06:54:53.289Z,13.11
2022-09-11T06:57:48.265Z,13.12
2022-09-11T07:00:43.276Z,13.15
2022-09-11T07:03:30.280Z,13.14
2022-09-11T07:06:03.338Z,13.14
2022-09-11T07:08:50.281Z,13.19
2022-09-11T07:11:23.525Z,13.21
2022-09-11T07:14:12.298Z,13.25
2022-09-11T07:16:52.332Z,13.26
2022-09-11T07:19:46.288Z,13.29
2022-09-11T07:22:41.290Z,13.33
2022-09-11T07:25:28.282Z,13.37
2022-09-11T07:28:01.374Z,13.43
2022-09-11T07:30:48.293Z,13.51
2022-09-11T07:33:23.135Z,13.65
2022-09-11T07:36:15.289Z,13.81
2022-09-11T07:38:49.656Z,13.94
2022-09-11T07:41:37.288Z,14.09
2022-09-11T07:44:10.360Z,14.22
2022-09-11T07:46:57.296Z,14.33
2022-09-11T07:49:37.294Z,14.41
2022-09-11T07:52:31.318Z,14.47
2022-09-11T07:55:18.297Z,14.50
2022-09-11T07:57:52.112Z,14.51
2022-09-11T08:00:39.304Z,14.54
2022-09-11T08:03:12.379Z,14.53
2022-09-11T08:06:04.309Z,14.53
2022-09-11T08:08:38.181Z,14.50
2022-09-11T08:11:25.306Z,14.45
2022-09-11T08:14:01.046Z,14.44
2022-09-11T08:16:48.449Z,14.45
2022-09-11T08:19:25.469Z,14.45
2022-09-11T08:22:12.328Z,14.46
2022-09-11T08:24:52.307Z,14.48
2022-09-11T08:27:46.321Z,14.48
2022-09-11T08:30:33.331Z,14.48
2022-09-11T08:33:15.337Z,14.43
2022-09-11T08:36:11.318Z,14.39
2022-09-11T08:38:59.332Z,14.36
2022-09-11T08:42:01.322Z,14.33
2022-09-11T08:45:08.346Z,14.30
2022-09-11T08:48:07.336Z,14.28
2022-09-11T08:50:56.336Z,14.18
2022-09-11T08:53:29.410Z,14.14
2022-09-11T08:56:21.329Z,14.13
2022-09-11T08:59:23.337Z,14.15
2022-09-11T09:02:49.335Z,14.14
2022-09-11T09:06:12.331Z,14.14
2022-09-11T09:09:14.337Z,14.13
2022-09-11T09:12:22.341Z,14.13
2022-09-11T09:15:20.345Z,14.13
2022-09-11T09:18:13.354Z,14.17
2022-09-11T09:21:03.345Z,14.22
2022-09-11T09:24:05.371Z,14.30
2022-09-11T09:26:57.335Z,14.39
2022-09-11T09:29:37.827Z,14.48
2022-09-11T09:32:33.352Z,14.53
2022-09-11T09:35:18.349Z,14.56
2022-09-11T09:38:06.366Z,14.60
2022-09-11T09:40:42.498Z,14.62
2022-09-11T09:43:35.371Z,14.64
2022-09-11T09:46:23.362Z,14.67
2022-09-11T09:49:17.363Z,14.69
2022-09-11T09:52:07.372Z,14.72
2022-09-11T09:54:41.495Z,14.74
2022-09-11T09:57:31.385Z,14.76
2022-09-11T10:00:24.357Z,14.79
2022-09-11T10:03:47.383Z,14.81
2022-09-11T10:06:34.370Z,14.80
2022-09-11T10:09:07.465Z,14.81
2022-09-11T10:11:59.377Z,14.85
2022-09-11T10:14:51.071Z,14.91
2022-09-11T10:17:41.381Z,14.96
2022-09-11T10:20:33.037Z,15.02
2022-09-11T10:23:33.405Z,15.06
2022-09-11T10:26:06.458Z,15.08
2022-09-11T10:28:54.401Z,15.08
2022-09-11T10:31:34.405Z,15.05
2022-09-11T10:34:31.369Z,15.05
2022-09-11T10:37:22.395Z,15.04
2022-09-11T10:39:56.551Z,15.06
2022-09-11T10:42:44.399Z,15.03
2022-09-11T10:45:23.539Z,15.01
2022-09-11T10:48:29.404Z,14.97
2022-09-11T10:51:15.074Z,14.93
2022-09-11T10:54:13.393Z,14.92
2022-09-11T10:57:07.489Z,14.91
2022-09-11T11:00:15.417Z,14.91
2022-09-11T11:02:54.534Z,14.91
2022-09-11T11:06:00.399Z,14.90
2022-09-11T11:08:38.513Z,14.91
2022-09-11T11:11:40.393Z,14.93
2022-09-11T11:14:44.414Z,14.93
2022-09-11T11:17:47.410Z,14.95
2022-09-11T11:20:33.402Z,14.96
2022-09-11T11:23:27.418Z,14.99
2022-09-11T11:26:28.403Z,15.01
2022-09-11T11:29:28.783Z,14.98
2022-09-11T11:32:53.411Z,14.92
2022-09-11T11:35:32.045Z,14.89
2022-09-11T11:38:27.415Z,14.84
2022-09-11T11:41:20.440Z,14.79
2022-09-11T11:44:17.425Z,14.76
2022-09-11T11:47:16.434Z,14.73
2022-09-11T11:50:15.450Z,14.71
2022-09-11T11:53:11.196Z,14.69
2022-09-11T11:56:26.444Z,14.67
2022-09-11T11:59:27.422Z,14.67
2022-09-11T12:02:14.498Z,14.67
2022-09-11T12:05:12.495Z,14.65
2022-09-11T12:08:00.453Z,14.63
2022-09-11T12:10:45.496Z,14.66
2022-09-11T12:13:50.445Z,14.71
2022-09-11T12:16:48.423Z,14.76
2022-09-11T12:19:35.440Z,14.79
2022-09-11T12:22:18.170Z,14.83
2022-09-11T12:25:07.449Z,14.85
2022-09-11T12:27:50.444Z,14.85
2022-09-11T12:30:57.476Z,14.87
2022-09-11T12:33:48.576Z,14.87
2022-09-11T12:36:40.433Z,14.86
2022-09-11T12:39:32.575Z,14.86
2022-09-11T12:42:31.440Z,14.87
2022-09-11T12:45:12.443Z,14.88
2022-09-11T12:48:06.448Z,14.90
2022-09-11T12:51:03.458Z,14.90
2022-09-11T12:53:49.476Z,14.91
2022-09-11T12:56:46.444Z,14.91
2022-09-11T12:59:46.476Z,14.91
2022-09-11T13:02:56.457Z,14.93
2022-09-11T13:05:46.479Z,14.93
2022-09-11T13:08:28.537Z,14.93
2022-09-11T13:11:40.478Z,14.95
2022-09-11T13:14:42.468Z,14.96
2022-09-11T13:17:35.459Z,14.97
2022-09-11T13:20:18.488Z,15.02
2022-09-11T13:23:29.481Z,15.03
2022-09-11T13:26:25.500Z,15.01
2022-09-11T13:29:01.688Z,15.03
2022-09-11T13:31:49.476Z,15.07
2022-09-11T13:34:25.585Z,15.10
2022-09-11T13:37:18.482Z,15.10
2022-09-11T13:39:59.511Z,15.11
2022-09-11T13:42:46.487Z,15.11
2022-09-11T13:45:26.327Z,15.12
2022-09-11T13:48:30.503Z,15.14
2022-09-11T13:51:12.488Z,15.14
2022-09-11T13:54:14.481Z,15.16
2022-09-11T13:57:09.506Z,15.16
2022-09-11T14:00:07.495Z,15.17
2022-09-11T14:02:59.476Z,15.17
2022-09-11T14:05:41.502Z,15.18
2022-09-11T14:08:53.484Z,15.17
2022-09-11T14:11:40.490Z,15.15
2022-09-11T14:14:26.492Z,15.14
2022-09-11T14:17:24.515Z,15.14
2022-09-11T14:20:11.498Z,15.12
2022-09-11T14:22:44.558Z,15.12
2022-09-11T14:25:31.500Z,15.11
2022-09-11T14:28:05.751Z,15.11
2022-09-11T14:31:12.538Z,15.11
2022-09-11T14:33:52.501Z,15.11
2022-09-11T14:36:40.532Z,15.11
2022-09-11T14:39:23.614Z,15.11
2022-09-11T14:42:14.506Z,15.09
2022-09-11T14:44:48.637Z,15.08
2022-09-11T14:47:35.500Z,15.07
2022-09-11T14:50:12.088Z,15.05
2022-09-11T14:52:58.534Z,15.03
2022-09-11T14:55:31.602Z,15.04
2022-09-11T14:58:18.521Z,15.03
2022-09-11T15:00:51.582Z,15.04
2022-09-11T15:03:38.575Z,15.03
2022-09-11T15:06:11.634Z,15.03
2022-09-11T15:08:58.534Z,15.01
2022-09-11T15:11:37.427Z,15.00
2022-09-11T15:14:54.991Z,15.00
2022-09-11T15:17:42.542Z,14.98
2022-09-11T15:20:15.594Z,14.97
2022-09-11T15:23:02.549Z,14.95
2022-09-11T15:25:35.621Z,14.94
2022-09-11T15:28:22.561Z,14.90
2022-09-11T15:31:00.647Z,14.88
2022-09-11T15:33:47.530Z,14.88
2022-09-11T15:36:23.008Z,14.86
2022-09-11T15:39:09.543Z,14.83
2022-09-11T15:41:46.936Z,14.81
2022-09-11T15:44:35.550Z,14.79
2022-09-11T15:47:08.920Z,14.77
2022-09-11T15:49:55.546Z,14.74
2022-09-11T15:52:29.504Z,14.71
2022-09-11T15:55:16.562Z,14.68
2022-09-11T15:57:49.936Z,14.64
2022-09-11T16:00:36.617Z,14.62
2022-09-11T16:03:09.639Z,14.60
2022-09-11T16:05:56.544Z,14.57
2022-09-11T16:08:32.703Z,14.52
2022-09-11T16:11:20.557Z,14.49
2022-09-11T16:13:58.638Z,14.44
2022-09-11T16:16:45.547Z,14.40
2022-09-11T16:19:18.623Z,14.37
2022-09-11T16:22:07.595Z,14.30
2022-09-11T16:24:43.498Z,14.26
2022-09-11T16:27:30.561Z,14.19
2022-09-11T16:33:10.558Z,14.14
2022-09-11T16:35:45.293Z,14.12
2022-09-11T16:38:31.580Z,14.13
2022-09-11T16:41:16.815Z,14.10
2022-09-11T16:44:03.566Z,14.06
2022-09-11T16:46:43.609Z,14.03
2022-09-11T16:50:03.246Z,14.01
2022-09-11T16:52:45.585Z,13.97
2022-09-11T16:55:20.205Z,13.96
2022-09-11T16:58:06.572Z,13.96
2022-09-11T17:00:39.735Z,13.95
2022-09-11T17:03:26.589Z,13.96
2022-09-11T17:06:08.583Z,13.95
2022-09-11T17:09:06.578Z,13.92
2022-09-11T17:11:54.572Z,13.87
2022-09-11T17:14:28.455Z,13.87
2022-09-11T17:17:15.576Z,13.84
2022-09-11T17:19:56.586Z,13.83
2022-09-11T17:22:53.730Z,13.81
2022-09-11T17:25:46.612Z,13.78
2022-09-11T17:28:22.470Z,13.75
2022-09-11T17:31:10.649Z,13.74
2022-09-11T17:33:45.497Z,13.71
2022-09-11T17:36:32.628Z,13.65
2022-09-11T17:39:05.748Z,13.62
2022-09-11T17:41:52.605Z,13.58
2022-09-11T17:44:32.588Z,13.56
2022-09-11T17:47:26.631Z,13.52
2022-09-11T17:50:14.588Z,13.50
2022-09-11T17:52:54.614Z,13.48
2022-09-11T17:55:48.609Z,13.45
2022-09-11T17:58:36.628Z,13.44
2022-09-11T18:01:17.651Z,13.40
2022-09-11T18:04:12.601Z,13.39
2022-09-11T18:06:59.609Z,13.37
2022-09-11T18:09:32.685Z,13.34
2022-09-11T18:12:19.642Z,13.34
2022-09-11T18:15:02.614Z,13.32
2022-09-11T18:17:56.641Z,13.32
2022-09-11T18:20:50.648Z,13.30
2022-09-11T18:23:39.637Z,13.30
2022-09-11T18:26:13.701Z,13.28
2022-09-11T18:29:05.630Z,13.25
2022-09-11T18:31:43.854Z,13.23
2022-09-11T18:34:32.620Z,13.23
2022-09-11T18:37:07.253Z,13.19
2022-09-11T18:39:54.694Z,13.17
2022-09-11T18:42:27.683Z,13.15
2022-09-11T18:45:15.628Z,13.13
2022-09-11T18:47:52.634Z,13.10
2022-09-11T18:50:42.644Z,13.08
2022-09-11T18:53:17.305Z,13.08
2022-09-11T18:56:08.615Z,13.05
2022-09-11T18:58:45.605Z,13.05
2022-09-11T19:01:35.706Z,13.02
2022-09-11T19:04:16.927Z,13.00
2022-09-11T19:07:03.657Z,12.98
2022-09-11T19:09:45.960Z,12.99
2022-09-11T19:12:39.651Z,12.97
2022-09-11T19:15:33.652Z,12.97
2022-09-11T19:18:27.672Z,12.96
2022-09-11T19:21:18.668Z,12.94
2022-09-11T19:23:55.942Z,12.93
2022-09-11T19:26:48.669Z,12.91
2022-09-11T19:29:22.642Z,12.90
2022-09-11T19:32:09.653Z,12.90
2022-09-11T19:34:49.642Z,12.89
2022-09-11T19:37:43.663Z,12.90
2022-09-11T19:40:30.672Z,12.90
2022-09-11T19:43:04.030Z,12.88
2022-09-11T19:45:50.677Z,12.89
2022-09-11T19:48:24.731Z,12.86
2022-09-11T19:51:15.666Z,12.87
2022-09-11T19:53:49.766Z,12.86
2022-09-11T19:56:38.688Z,12.83
2022-09-11T19:59:14.295Z,12.82
2022-09-11T20:02:00.735Z,12.79
2022-09-11T20:04:40.677Z,12.76
2022-09-11T20:07:34.666Z,12.73
2022-09-11T20:10:22.679Z,12.73
2022-09-11T20:12:56.756Z,12.70
2022-09-11T20:15:44.676Z,12.67
2022-09-11T20:18:24.681Z,12.66
2022-09-11T20:21:22.686Z,12.66
2022-09-11T20:24:11.699Z,12.64
2022-09-11T20:26:51.664Z,12.60
2022-09-11T20:29:46.693Z,12.59
2022-09-11T20:32:33.688Z,12.55
2022-09-11T20:35:06.766Z,12.53
2022-09-11T20:37:53.713Z,12.52
2022-09-11T20:40:33.696Z,12.50
2022-09-11T20:43:27.708Z,12.48
2022-09-11T20:46:15.757Z,12.48
2022-09-11T20:48:48.902Z,12.48
2022-09-11T20:51:35.700Z,12.47
2022-09-11T20:54:08.767Z,12.48
2022-09-11T20:56:55.707Z,12.45
2022-09-11T20:59:28.773Z,12.44
2022-09-11T21:02:18.762Z,12.41
2022-09-11T21:04:52.813Z,12.40
2022-09-11T21:07:39.709Z,12.37
2022-09-11T21:10:14.147Z,12.38
2022-09-11T21:12:53.714Z,12.36
2022-09-11T21:15:40.706Z,12.36
2022-09-11T21:18:34.701Z,12.32
2022-09-11T21:21:21.709Z,12.28
2022-09-11T21:23:55.016Z,12.26
2022-09-11T21:26:41.721Z,12.23
2022-09-11T21:29:25.715Z,12.22
2022-09-11T21:32:12.704Z,12.19
2022-09-11T21:34:52.724Z,12.18
2022-09-11T21:37:46.699Z,12.15
2022-09-11T21:40:33.730Z,12.12
2022-09-11T21:43:13.713Z,12.10
2022-09-11T21:46:00.729Z,12.08
2022-09-11T21:48:35.891Z,12.04
2022-09-11T21:51:24.725Z,12.02
2022-09-11T21:54:09.727Z,12.01
2022-09-11T21:57:03.725Z,11.99
2022-09-11T21:59:50.753Z,11.99
2022-09-11T22:02:24.763Z,11.96
2022-09-11T22:05:12.704Z,11.95
2022-09-11T22:07:45.812Z,11.93
2022-09-11T22:10:32.723Z,11.90
2022-09-11T22:13:05.864Z,11.89
2022-09-11T22:16:01.751Z,11.87
2022-09-11T22:18:48.736Z,11.85
2022-09-11T22:21:22.810Z,11.84
2022-09-11T22:24:09.724Z,11.84
2022-09-11T22:26:49.760Z,11.82
2022-09-11T22:29:46.919Z,11.79
2022-09-11T22:32:33.764Z,11.78
2022-09-11T22:35:06.842Z,11.74
2022-09-11T22:37:53.768Z,11.74
2022-09-11T22:40:26.890Z,11.73
2022-09-11T22:43:13.730Z,11.72
2022-09-11T22:45:46.872Z,11.73
2022-09-11T22:48:33.756Z,11.71
2022-09-11T22:51:06.863Z,11.70
2022-09-11T22:53:53.762Z,11.70
2022-09-11T22:56:26.822Z,11.68
2022-09-11T22:59:13.776Z,11.69
2022-09-11T23:01:46.857Z,11.69
2022-09-11T23:04:33.793Z,11.70
2022-09-11T23:07:15.986Z,11.73
2022-09-11T23:10:02.769Z,11.75
2022-09-11T23:12:37.270Z,11.74
2022-09-11T23:15:30.753Z,11.74
2022-09-11T23:18:24.759Z,11.75
2022-09-11T23:21:11.768Z,11.77
2022-09-11T23:23:45.867Z,11.76
2022-09-11T23:26:34.771Z,11.76
2022-09-11T23:29:07.862Z,11.76
2022-09-11T23:31:54.810Z,11.77
2022-09-11T23:34:27.885Z,11.76
2022-09-11T23:37:14.798Z,11.75
2022-09-11T23:39:49.964Z,11.77
2022-09-11T23:42:36.784Z,11.76
2022-09-11T23:45:12.675Z,11.75
2022-09-11T23:47:59.758Z,11.75
2022-09-11T23:50:33.085Z,11.75
2022-09-11T23:53:19.779Z,11.74
2022-09-11T23:56:00.812Z,11.74
2022-09-11T23:58:54.793Z,11.71
